createdAt,value
2022-10-10T00:00:26.616Z,0.00
2022-10-10T00:01:26.674Z,0.00
2022-10-10T00:02:26.605Z,0.00
2022-10-10T00:03:26.587Z,0.00
2022-10-10T00:04:26.590Z,0.00
2022-10-10T00:05:26.564Z,0.00
2022-10-10T00:06:31.881Z,0.00
2022-10-10T00:07:28.577Z,0.00
2022-10-10T00:08:26.549Z,0.00
2022-10-10T00:09:26.545Z,0.00
2022-10-10T00:10:26.538Z,0.00
2022-10-10T00:11:26.566Z,0.00
2022-10-10T00:12:26.539Z,0.00
2022-10-10T00:13:26.512Z,0.00
2022-10-10T00:14:29.309Z,0.00
2022-10-10T00:15:27.541Z,0.00
2022-10-10T00:16:26.521Z,0.00
2022-10-10T00:17:26.481Z,0.00
2022-10-10T00:18:26.534Z,0.00
2022-10-10T00:19:26.466Z,0.00
2022-10-10T00:20:26.453Z,0.00
2022-10-10T00:21:26.484Z,0.00
2022-10-10T00:22:26.437Z,0.00
2022-10-10T00:23:26.431Z,0.00
2022-10-10T00:24:26.420Z,0.00
2022-10-10T00:25:26.415Z,0.00
2022-10-10T00:26:26.433Z,0.00
2022-10-10T00:27:26.398Z,0.00
2022-10-10T00:28:26.438Z,0.00
2022-10-10T00:29:26.388Z,0.00
2022-10-10T00:30:26.389Z,0.00
2022-10-10T00:31:26.413Z,0.00
2022-10-10T00:32:26.361Z,0.00
2022-10-10T00:33:26.366Z,0.00
2022-10-10T00:34:26.349Z,0.00
2022-10-10T00:35:26.374Z,0.00
2022-10-10T00:36:26.349Z,0.00
2022-10-10T00:37:26.319Z,0.00
2022-10-10T00:38:26.309Z,0.00
2022-10-10T00:39:26.286Z,0.00
2022-10-10T00:40:27.290Z,0.00
2022-10-10T00:41:26.316Z,0.00
2022-10-10T00:42:26.290Z,0.00
2022-10-10T00:43:26.275Z,0.00
2022-10-10T00:44:26.250Z,0.00
2022-10-10T00:45:26.246Z,0.00
2022-10-10T00:46:26.267Z,0.00
2022-10-10T00:47:26.234Z,0.00
2022-10-10T00:48:26.231Z,0.00
2022-10-10T00:49:26.219Z,0.00
2022-10-10T00:50:26.212Z,0.00
2022-10-10T00:51:26.228Z,0.00
2022-10-10T00:52:26.190Z,0.00
2022-10-10T00:53:26.186Z,0.00
2022-10-10T00:54:26.173Z,0.00
2022-10-10T00:55:26.170Z,0.00
2022-10-10T00:56:26.187Z,0.00
2022-10-10T00:57:26.152Z,0.00
2022-10-10T00:58:26.148Z,0.00
2022-10-10T00:59:26.136Z,0.00
2022-10-10T01:00:26.130Z,0.00
2022-10-10T01:01:26.351Z,0.00
2022-10-10T01:02:26.114Z,0.00
2022-10-10T01:03:26.086Z,0.00
2022-10-10T01:04:27.100Z,0.00
2022-10-10T01:05:26.094Z,0.00
2022-10-10T01:06:26.107Z,0.00
2022-10-10T01:07:26.066Z,0.00
2022-10-10T01:08:26.058Z,0.00
2022-10-10T01:09:26.045Z,0.00
2022-10-10T01:10:26.044Z,0.00
2022-10-10T01:11:26.077Z,0.00
2022-10-10T01:12:26.031Z,0.00
2022-10-10T01:13:26.020Z,0.00
2022-10-10T01:14:26.012Z,0.00
2022-10-10T01:15:26.021Z,0.00
2022-10-10T01:16:26.024Z,0.00
2022-10-10T01:17:26.004Z,0.00
2022-10-10T01:18:26.137Z,0.00
2022-10-10T01:19:25.964Z,0.00
2022-10-10T01:20:26.965Z,0.00
2022-10-10T01:21:25.984Z,0.00
2022-10-10T01:22:25.974Z,0.00
2022-10-10T01:23:25.937Z,0.00
2022-10-10T01:24:25.930Z,0.00
2022-10-10T01:25:25.920Z,0.00
2022-10-10T01:26:25.983Z,0.00
2022-10-10T01:27:30.970Z,0.00
2022-10-10T01:28:27.935Z,0.00
2022-10-10T01:29:25.887Z,0.00
2022-10-10T01:30:25.887Z,0.00
2022-10-10T01:31:25.900Z,0.00
2022-10-10T01:32:25.859Z,0.00
2022-10-10T01:33:25.855Z,0.00
2022-10-10T01:34:25.845Z,0.00
2022-10-10T01:35:25.834Z,0.00
2022-10-10T01:36:25.862Z,0.00
2022-10-10T01:37:25.825Z,0.00
2022-10-10T01:38:25.810Z,0.00
2022-10-10T01:39:25.798Z,0.00
2022-10-10T01:40:25.792Z,0.00
2022-10-10T01:41:25.811Z,0.00
2022-10-10T01:42:26.777Z,0.00
2022-10-10T01:43:25.767Z,0.00
2022-10-10T01:44:25.761Z,0.00
2022-10-10T01:45:25.756Z,0.00
2022-10-10T01:46:25.841Z,0.00
2022-10-10T01:47:25.781Z,0.00
2022-10-10T01:48:25.728Z,0.00
2022-10-10T01:49:25.719Z,0.00
2022-10-10T01:50:25.714Z,0.00
2022-10-10T01:51:25.700Z,0.00
2022-10-10T01:52:25.741Z,0.00
2022-10-10T01:53:25.695Z,0.00
2022-10-10T01:54:25.680Z,0.00
2022-10-10T01:55:25.669Z,0.00
2022-10-10T01:56:25.703Z,0.00
2022-10-10T01:57:25.676Z,0.00
2022-10-10T01:58:25.653Z,0.00
2022-10-10T01:59:25.642Z,0.00
2022-10-10T02:00:25.634Z,0.00
2022-10-10T02:01:25.629Z,0.00
2022-10-10T02:02:25.877Z,0.00
2022-10-10T02:03:25.618Z,0.00
2022-10-10T02:04:25.605Z,0.00
2022-10-10T02:05:25.601Z,0.00
2022-10-10T02:06:25.618Z,0.00
2022-10-10T02:07:26.584Z,0.00
2022-10-10T02:08:25.580Z,0.00
2022-10-10T02:09:25.565Z,0.00
2022-10-10T02:10:25.571Z,0.00
2022-10-10T02:11:25.553Z,0.00
2022-10-10T02:12:25.571Z,0.00
2022-10-10T02:13:25.537Z,0.00
2022-10-10T02:14:25.523Z,0.00
2022-10-10T02:15:25.522Z,0.00
2022-10-10T02:16:25.504Z,0.00
2022-10-10T02:17:25.532Z,0.00
2022-10-10T02:18:25.586Z,0.00
2022-10-10T02:19:25.491Z,0.00
2022-10-10T02:20:25.489Z,0.00
2022-10-10T02:21:25.477Z,0.00
2022-10-10T02:22:25.494Z,0.00
2022-10-10T02:23:25.459Z,0.00
2022-10-10T02:24:25.447Z,0.00
2022-10-10T02:25:25.444Z,0.00
2022-10-10T02:26:25.432Z,0.00
2022-10-10T02:27:25.793Z,0.00
2022-10-10T02:28:25.419Z,0.00
2022-10-10T02:29:25.415Z,0.00
2022-10-10T02:30:25.406Z,0.00
2022-10-10T02:31:25.422Z,0.00
2022-10-10T02:32:25.388Z,0.00
2022-10-10T02:33:25.366Z,0.00
2022-10-10T02:34:25.374Z,0.00
2022-10-10T02:35:25.365Z,0.00
2022-10-10T02:36:25.384Z,0.00
2022-10-10T02:37:25.345Z,0.00
2022-10-10T02:38:25.333Z,0.00
2022-10-10T02:39:25.326Z,0.00
2022-10-10T02:40:25.564Z,0.00
2022-10-10T02:41:25.341Z,0.00
2022-10-10T02:42:25.300Z,0.00
2022-10-10T02:43:25.640Z,0.00
2022-10-10T02:44:25.286Z,0.00
2022-10-10T02:45:25.277Z,0.00
2022-10-10T02:46:25.287Z,0.00
2022-10-10T02:47:25.292Z,0.00
2022-10-10T02:48:25.252Z,0.00
2022-10-10T02:49:25.236Z,0.00
2022-10-10T02:50:25.232Z,0.00
2022-10-10T02:51:29.678Z,0.00
2022-10-10T02:52:27.248Z,0.00
2022-10-10T02:53:25.212Z,0.00
2022-10-10T02:54:25.421Z,0.00
2022-10-10T02:55:25.191Z,0.00
2022-10-10T02:56:25.185Z,0.00
2022-10-10T02:57:25.205Z,0.00
2022-10-10T02:58:25.164Z,0.00
2022-10-10T02:59:25.164Z,0.00
2022-10-10T03:00:25.151Z,0.00
2022-10-10T03:01:25.171Z,0.00
2022-10-10T03:02:25.166Z,0.00
2022-10-10T03:03:25.133Z,0.00
2022-10-10T03:04:25.179Z,0.00
2022-10-10T03:05:25.106Z,0.00
2022-10-10T03:06:25.140Z,0.00
2022-10-10T03:07:25.127Z,0.00
2022-10-10T03:08:25.090Z,0.00
2022-10-10T03:09:25.080Z,0.00
2022-10-10T03:10:25.067Z,0.00
2022-10-10T03:11:25.055Z,0.00
2022-10-10T03:12:25.186Z,0.00
2022-10-10T03:13:25.042Z,0.00
2022-10-10T03:14:25.093Z,0.00
2022-10-10T03:15:25.025Z,0.00
2022-10-10T03:16:25.023Z,0.00
2022-10-10T03:17:25.040Z,0.00
2022-10-10T03:18:24.997Z,0.00
2022-10-10T03:19:24.996Z,0.00
2022-10-10T03:20:25.018Z,0.00
2022-10-10T03:21:24.980Z,0.00
2022-10-10T03:22:24.997Z,0.00
2022-10-10T03:23:24.965Z,0.00
2022-10-10T03:24:24.953Z,0.00
2022-10-10T03:25:24.950Z,0.00
2022-10-10T03:26:24.939Z,0.00
2022-10-10T03:27:24.958Z,0.00
2022-10-10T03:28:24.959Z,0.00
2022-10-10T03:29:24.915Z,0.00
2022-10-10T03:30:24.905Z,0.00
2022-10-10T03:31:24.898Z,0.00
2022-10-10T03:32:24.919Z,0.00
2022-10-10T03:33:24.876Z,0.00
2022-10-10T03:34:24.874Z,0.00
2022-10-10T03:35:24.927Z,0.00
2022-10-10T03:36:25.002Z,0.00
2022-10-10T03:37:24.871Z,0.00
2022-10-10T03:38:24.839Z,0.00
2022-10-10T03:39:24.832Z,0.00
2022-10-10T03:40:24.905Z,0.00
2022-10-10T03:41:24.820Z,0.00
2022-10-10T03:42:24.833Z,0.00
2022-10-10T03:43:24.799Z,0.00
2022-10-10T03:44:24.796Z,0.00
2022-10-10T03:45:24.782Z,0.00
2022-10-10T03:46:24.779Z,0.00
2022-10-10T03:47:24.796Z,0.00
2022-10-10T03:48:24.766Z,0.00
2022-10-10T03:49:24.749Z,0.00
2022-10-10T03:50:24.752Z,0.00
2022-10-10T03:51:24.736Z,0.00
2022-10-10T03:52:24.755Z,0.00
2022-10-10T03:53:24.717Z,0.00
2022-10-10T03:54:24.718Z,0.00
2022-10-10T03:55:24.704Z,0.00
2022-10-10T03:56:24.691Z,0.00
2022-10-10T03:57:24.722Z,0.00
2022-10-10T03:58:24.707Z,0.00
2022-10-10T03:59:24.667Z,0.00
2022-10-10T04:00:24.661Z,0.00
2022-10-10T04:01:24.703Z,0.00
2022-10-10T04:02:24.697Z,0.00
2022-10-10T04:03:24.639Z,0.00
2022-10-10T04:04:24.715Z,0.00
2022-10-10T04:05:24.626Z,0.00
2022-10-10T04:06:24.611Z,0.00
2022-10-10T04:07:24.634Z,0.00
2022-10-10T04:08:24.593Z,0.00
2022-10-10T04:09:24.615Z,0.00
2022-10-10T04:10:24.589Z,0.00
2022-10-10T04:11:24.573Z,0.00
2022-10-10T04:12:24.607Z,0.00
2022-10-10T04:13:24.558Z,0.00
2022-10-10T04:14:24.546Z,0.00
2022-10-10T04:15:24.537Z,0.00
2022-10-10T04:16:24.546Z,0.00
2022-10-10T04:17:24.523Z,0.00
2022-10-10T04:18:24.545Z,0.00
2022-10-10T04:19:24.516Z,0.00
2022-10-10T04:20:24.518Z,0.00
2022-10-10T04:21:24.493Z,0.00
2022-10-10T04:22:24.490Z,0.00
2022-10-10T04:23:24.495Z,0.00
2022-10-10T04:24:24.470Z,0.00
2022-10-10T04:25:24.469Z,0.00
2022-10-10T04:26:24.471Z,0.00
2022-10-10T04:27:24.441Z,0.00
2022-10-10T04:28:24.483Z,0.00
2022-10-10T04:29:24.423Z,0.00
2022-10-10T04:30:24.412Z,0.00
2022-10-10T04:31:24.403Z,0.00
2022-10-10T04:32:24.470Z,0.00
2022-10-10T04:33:24.418Z,0.00
2022-10-10T04:34:24.376Z,0.00
2022-10-10T04:35:24.374Z,0.00
2022-10-10T04:36:24.359Z,0.00
2022-10-10T04:37:24.365Z,0.00
2022-10-10T04:38:24.378Z,0.00
2022-10-10T04:39:24.340Z,0.00
2022-10-10T04:40:26.806Z,0.00
2022-10-10T04:41:25.336Z,0.00
2022-10-10T04:42:24.324Z,0.00
2022-10-10T04:43:24.330Z,0.00
2022-10-10T04:44:24.296Z,0.00
2022-10-10T04:45:24.287Z,0.00
2022-10-10T04:46:24.280Z,0.00
2022-10-10T04:47:24.270Z,0.00
2022-10-10T04:48:24.297Z,0.00
2022-10-10T04:49:24.258Z,0.00
2022-10-10T04:50:24.246Z,0.00
2022-10-10T04:51:24.237Z,0.00
2022-10-10T04:52:24.229Z,0.00
2022-10-10T04:53:24.326Z,0.00
2022-10-10T04:54:24.217Z,0.00
2022-10-10T04:55:24.205Z,0.00
2022-10-10T04:56:24.207Z,0.00
2022-10-10T04:57:24.197Z,0.00
2022-10-10T04:58:24.208Z,0.00
2022-10-10T04:59:24.169Z,0.00
2022-10-10T05:00:24.164Z,0.00
2022-10-10T05:01:24.179Z,4.00
2022-10-10T05:02:24.148Z,4.00
2022-10-10T05:03:24.173Z,0.00
2022-10-10T05:04:24.130Z,0.00
2022-10-10T05:05:24.122Z,4.00
2022-10-10T05:06:24.113Z,4.00
2022-10-10T05:07:24.111Z,4.00
2022-10-10T05:08:24.125Z,8.00
2022-10-10T05:09:24.092Z,8.00
2022-10-10T05:10:24.083Z,8.00
2022-10-10T05:11:24.083Z,12.00
2022-10-10T05:12:24.062Z,8.00
2022-10-10T05:13:24.081Z,12.00
2022-10-10T05:14:24.051Z,16.00
2022-10-10T05:15:24.049Z,20.00
2022-10-10T05:16:24.030Z,24.00
2022-10-10T05:17:24.026Z,28.00
2022-10-10T05:18:24.039Z,32.00
2022-10-10T05:19:24.020Z,40.00
2022-10-10T05:20:23.996Z,48.00
2022-10-10T05:21:23.981Z,52.00
2022-10-10T05:22:24.989Z,64.00
2022-10-10T05:23:24.004Z,72.00
2022-10-10T05:24:23.966Z,84.00
2022-10-10T05:25:23.959Z,100.00
2022-10-10T05:26:23.948Z,112.00
2022-10-10T05:27:23.936Z,132.00
2022-10-10T05:28:24.019Z,152.00
2022-10-10T05:29:23.926Z,176.00
2022-10-10T05:30:23.922Z,200.00
2022-10-10T05:31:23.911Z,224.00
2022-10-10T05:32:23.895Z,252.00
2022-10-10T05:33:23.916Z,280.00
2022-10-10T05:34:23.891Z,308.00
2022-10-10T05:35:23.967Z,340.00
2022-10-10T05:36:23.870Z,372.00
2022-10-10T05:37:23.862Z,408.00
2022-10-10T05:38:23.877Z,444.00
2022-10-10T05:39:23.852Z,484.00
2022-10-10T05:40:23.834Z,524.00
2022-10-10T05:41:23.824Z,572.00
2022-10-10T05:42:23.815Z,620.00
2022-10-10T05:43:23.834Z,668.00
2022-10-10T05:44:23.802Z,716.00
2022-10-10T05:45:23.797Z,768.00
2022-10-10T05:46:23.787Z,816.00
2022-10-10T05:47:27.618Z,872.00
2022-10-10T05:48:24.800Z,928.00
2022-10-10T05:49:23.759Z,992.00
2022-10-10T05:50:23.756Z,1060.00
2022-10-10T05:51:23.745Z,1144.00
2022-10-10T05:52:23.744Z,1232.00
2022-10-10T05:53:23.765Z,1372.00
2022-10-10T05:54:23.729Z,1588.00
2022-10-10T05:55:23.708Z,1804.00
2022-10-10T05:56:23.702Z,1912.00
2022-10-10T05:57:23.702Z,1992.00
2022-10-10T05:58:23.734Z,2048.00
2022-10-10T05:59:23.688Z,2088.00
2022-10-10T06:00:23.665Z,2788.00
2022-10-10T06:01:23.662Z,3740.00
2022-10-10T06:02:23.667Z,4652.00
2022-10-10T06:03:23.676Z,5424.00
2022-10-10T06:04:23.638Z,5980.00
2022-10-10T06:05:23.625Z,6676.00
2022-10-10T06:06:23.617Z,7124.00
2022-10-10T06:07:23.612Z,7300.00
2022-10-10T06:08:23.628Z,6868.00
2022-10-10T06:09:23.598Z,6500.00
2022-10-10T06:10:23.582Z,4896.00
2022-10-10T06:11:23.576Z,3572.00
2022-10-10T06:12:23.570Z,3196.00
2022-10-10T06:13:24.611Z,3532.00
2022-10-10T06:14:24.552Z,5892.00
2022-10-10T06:15:23.544Z,9120.00
2022-10-10T06:16:23.528Z,6656.00
2022-10-10T06:17:23.529Z,5980.00
2022-10-10T06:18:23.550Z,7588.00
2022-10-10T06:19:23.535Z,11096.00
2022-10-10T06:20:23.507Z,13536.00
2022-10-10T06:21:23.491Z,13952.00
2022-10-10T06:22:23.476Z,13728.00
2022-10-10T06:23:23.514Z,13856.00
2022-10-10T06:24:23.471Z,14784.00
2022-10-10T06:25:39.605Z,15808.00
2022-10-10T06:26:25.466Z,17792.00
2022-10-10T06:27:23.446Z,20096.00
2022-10-10T06:28:23.537Z,20864.00
2022-10-10T06:29:23.428Z,20640.00
2022-10-10T06:30:23.420Z,20768.00
2022-10-10T06:31:23.410Z,21632.00
2022-10-10T06:32:23.403Z,23264.00
2022-10-10T06:33:23.390Z,24032.00
2022-10-10T06:34:23.410Z,24384.00
2022-10-10T06:35:23.379Z,25984.00
2022-10-10T06:36:23.382Z,27200.00
2022-10-10T06:37:23.362Z,26880.00
2022-10-10T06:38:23.356Z,26240.00
2022-10-10T06:39:23.376Z,26560.00
2022-10-10T06:40:23.339Z,29792.00
2022-10-10T06:41:23.350Z,34464.00
2022-10-10T06:42:23.324Z,34656.00
2022-10-10T06:43:23.316Z,33408.00
2022-10-10T06:44:23.337Z,34528.00
2022-10-10T06:45:23.348Z,35264.00
2022-10-10T06:46:23.300Z,31360.00
2022-10-10T06:47:23.288Z,26240.00
2022-10-10T06:48:23.277Z,25056.00
2022-10-10T06:49:23.295Z,25184.00
2022-10-10T06:50:23.260Z,24992.00
2022-10-10T06:51:23.258Z,24640.00
2022-10-10T06:52:23.244Z,24288.00
2022-10-10T06:53:23.237Z,24576.00
2022-10-10T06:54:23.257Z,24576.00
2022-10-10T06:55:23.220Z,24800.00
2022-10-10T06:56:27.458Z,24896.00
2022-10-10T06:57:24.201Z,25152.00
2022-10-10T06:58:23.189Z,25536.00
2022-10-10T06:59:23.208Z,25792.00
2022-10-10T07:00:23.188Z,26048.00
2022-10-10T07:01:23.217Z,26208.00
2022-10-10T07:02:23.178Z,26624.00
2022-10-10T07:03:23.151Z,26880.00
2022-10-10T07:04:23.166Z,27456.00
2022-10-10T07:05:23.134Z,29280.00
2022-10-10T07:06:23.121Z,37952.00
2022-10-10T07:07:23.113Z,55040.00
2022-10-10T07:08:23.091Z,67200.00
2022-10-10T07:09:24.126Z,70048.00
2022-10-10T07:10:23.088Z,70304.00
2022-10-10T07:11:23.096Z,71616.00
2022-10-10T07:12:23.077Z,74176.00
2022-10-10T07:13:23.070Z,74400.00
2022-10-10T07:14:23.098Z,73952.00
2022-10-10T07:15:23.043Z,77024.00
2022-10-10T07:16:23.047Z,77536.00
2022-10-10T07:17:23.030Z,77248.00
2022-10-10T07:18:23.035Z,76160.00
2022-10-10T07:19:23.052Z,77408.00
2022-10-10T07:20:23.013Z,78240.00
2022-10-10T07:21:22.998Z,78784.00
2022-10-10T07:22:22.990Z,78976.00
2022-10-10T07:23:22.987Z,78464.00
2022-10-10T07:24:23.005Z,77120.00
2022-10-10T07:25:22.962Z,79264.00
2022-10-10T07:26:22.957Z,81952.00
2022-10-10T07:27:22.952Z,81696.00
2022-10-10T07:28:22.960Z,80736.00
2022-10-10T07:29:22.960Z,80960.00
2022-10-10T07:30:22.924Z,81792.00
2022-10-10T07:31:22.911Z,80768.00
2022-10-10T07:32:22.906Z,78816.00
2022-10-10T07:33:22.896Z,81632.00
2022-10-10T07:34:22.926Z,83200.00
2022-10-10T07:35:22.886Z,82368.00
2022-10-10T07:36:22.869Z,82592.00
2022-10-10T07:37:22.866Z,84704.00
2022-10-10T07:38:22.858Z,82976.00
2022-10-10T07:39:22.882Z,83168.00
2022-10-10T07:40:22.842Z,83936.00
2022-10-10T07:41:22.839Z,84768.00
2022-10-10T07:42:22.833Z,84384.00
2022-10-10T07:43:22.814Z,85376.00
2022-10-10T07:44:22.837Z,87328.00
2022-10-10T07:45:22.806Z,88320.00
2022-10-10T07:46:22.789Z,87168.00
2022-10-10T07:47:22.793Z,86880.00
2022-10-10T07:48:22.784Z,87456.00
2022-10-10T07:49:22.796Z,86816.00
2022-10-10T07:50:22.784Z,87328.00
2022-10-10T07:51:22.748Z,88576.00
2022-10-10T07:52:22.746Z,87200.00
2022-10-10T07:53:22.736Z,86912.00
2022-10-10T07:54:22.783Z,86784.00
2022-10-10T07:55:22.723Z,87424.00
2022-10-10T07:56:22.732Z,88288.00
2022-10-10T07:57:22.700Z,88512.00
2022-10-10T07:58:22.695Z,90208.00
2022-10-10T07:59:22.709Z,90272.00
2022-10-10T08:00:22.678Z,89344.00
2022-10-10T08:01:22.696Z,89120.00
2022-10-10T08:02:22.659Z,90112.00
2022-10-10T08:03:22.646Z,91808.00
2022-10-10T08:04:23.674Z,91584.00
2022-10-10T08:05:22.655Z,90624.00
2022-10-10T08:06:22.627Z,89920.00
2022-10-10T08:07:22.619Z,90912.00
2022-10-10T08:08:22.617Z,93408.00
2022-10-10T08:09:22.641Z,93088.00
2022-10-10T08:10:22.613Z,96160.00
2022-10-10T08:11:22.586Z,98368.00
2022-10-10T08:12:22.580Z,95968.00
2022-10-10T08:13:22.573Z,96032.00
2022-10-10T08:14:22.593Z,95712.00
2022-10-10T08:15:22.550Z,96960.00
2022-10-10T08:16:22.546Z,97824.00
2022-10-10T08:17:22.542Z,98400.00
2022-10-10T08:18:22.534Z,97248.00
2022-10-10T08:19:22.551Z,95808.00
2022-10-10T08:20:22.777Z,97088.00
2022-10-10T08:21:22.511Z,97536.00
2022-10-10T08:22:22.504Z,98912.00
2022-10-10T08:23:23.846Z,98176.00
2022-10-10T08:24:22.540Z,99200.00
2022-10-10T08:25:22.490Z,97216.00
2022-10-10T08:26:22.501Z,95424.00
2022-10-10T08:27:22.487Z,97792.00
2022-10-10T08:28:22.526Z,98080.00
2022-10-10T08:29:22.478Z,100384.00
2022-10-10T08:30:22.518Z,100864.00
2022-10-10T08:31:22.450Z,101280.00
2022-10-10T08:32:22.436Z,102560.00
2022-10-10T08:33:22.418Z,99328.00
2022-10-10T08:34:22.440Z,96480.00
2022-10-10T08:35:22.433Z,99904.00
2022-10-10T08:36:22.462Z,101536.00
2022-10-10T08:37:27.013Z,99904.00
2022-10-10T08:38:24.377Z,100448.00
2022-10-10T08:39:22.400Z,98528.00
2022-10-10T08:40:22.368Z,99424.00
2022-10-10T08:41:22.362Z,100960.00
2022-10-10T08:42:22.352Z,98400.00
2022-10-10T08:43:22.353Z,99104.00
2022-10-10T08:44:22.370Z,99584.00
2022-10-10T08:45:22.331Z,102400.00
2022-10-10T08:46:22.321Z,102368.00
2022-10-10T08:47:22.309Z,100512.00
2022-10-10T08:48:22.298Z,99072.00
2022-10-10T08:49:22.331Z,100160.00
2022-10-10T08:50:22.304Z,102304.00
2022-10-10T08:51:22.306Z,101856.00
2022-10-10T08:52:22.281Z,99072.00
2022-10-10T08:53:22.272Z,101536.00
2022-10-10T08:54:22.265Z,102560.00
2022-10-10T08:55:22.289Z,102976.00
2022-10-10T08:56:22.251Z,104000.00
2022-10-10T08:57:22.269Z,102144.00
2022-10-10T08:58:22.227Z,101056.00
2022-10-10T08:59:22.242Z,102912.00
2022-10-10T09:00:22.246Z,102176.00
2022-10-10T09:01:24.864Z,101280.00
2022-10-10T09:02:26.005Z,101856.00
2022-10-10T09:03:23.193Z,102464.00
2022-10-10T09:04:22.188Z,103680.00
2022-10-10T09:05:22.209Z,103104.00
2022-10-10T09:06:22.172Z,102336.00
2022-10-10T09:07:22.157Z,101184.00
2022-10-10T09:08:26.362Z,101344.00
2022-10-10T09:09:23.151Z,100512.00
2022-10-10T09:10:22.163Z,98400.00
2022-10-10T09:11:22.129Z,98848.00
2022-10-10T09:12:22.126Z,100192.00
2022-10-10T09:13:22.148Z,101824.00
2022-10-10T09:14:22.119Z,103072.00
2022-10-10T09:15:22.144Z,103520.00
2022-10-10T09:16:22.120Z,104672.00
2022-10-10T09:17:22.114Z,102240.00
2022-10-10T09:18:22.085Z,99200.00
2022-10-10T09:19:22.096Z,99040.00
2022-10-10T09:20:22.120Z,99296.00
2022-10-10T09:21:22.064Z,99360.00
2022-10-10T09:22:22.063Z,98208.00
2022-10-10T09:23:22.047Z,99968.00
2022-10-10T09:24:22.068Z,102432.00
2022-10-10T09:25:22.039Z,103040.00
2022-10-10T09:26:22.031Z,102816.00
2022-10-10T09:27:22.017Z,100928.00
2022-10-10T09:28:22.065Z,100160.00
2022-10-10T09:29:22.040Z,101600.00
2022-10-10T09:30:21.994Z,101088.00
2022-10-10T09:31:21.988Z,100352.00
2022-10-10T09:32:21.987Z,97760.00
2022-10-10T09:33:21.980Z,97408.00
2022-10-10T09:34:22.004Z,98176.00
2022-10-10T09:35:22.029Z,100960.00
2022-10-10T09:36:21.959Z,101248.00
2022-10-10T09:37:35.655Z,101120.00
2022-10-10T09:38:23.948Z,100992.00
2022-10-10T09:39:21.960Z,100768.00
2022-10-10T09:40:21.930Z,98560.00
2022-10-10T09:41:21.925Z,96480.00
2022-10-10T09:42:21.920Z,99104.00
2022-10-10T09:43:21.911Z,98528.00
2022-10-10T09:44:21.933Z,97888.00
2022-10-10T09:45:21.906Z,98752.00
2022-10-10T09:46:21.897Z,100928.00
2022-10-10T09:47:21.881Z,101248.00
2022-10-10T09:48:21.868Z,98816.00
2022-10-10T09:49:21.913Z,94944.00
2022-10-10T09:50:21.875Z,95392.00
2022-10-10T09:51:21.854Z,97856.00
2022-10-10T09:52:21.851Z,94304.00
2022-10-10T09:53:21.840Z,89856.00
2022-10-10T09:54:21.865Z,91936.00
2022-10-10T09:55:21.829Z,98336.00
2022-10-10T09:56:21.822Z,99360.00
2022-10-10T09:57:24.176Z,88032.00
2022-10-10T09:58:21.810Z,84128.00
2022-10-10T09:59:21.826Z,91040.00
2022-10-10T10:00:22.785Z,94112.00
2022-10-10T10:01:21.888Z,98144.00
2022-10-10T10:02:21.784Z,102304.00
2022-10-10T10:03:21.781Z,102752.00
2022-10-10T10:04:29.547Z,101408.00
2022-10-10T10:05:23.814Z,100608.00
2022-10-10T10:06:21.752Z,98944.00
2022-10-10T10:07:21.785Z,99648.00
2022-10-10T10:08:21.784Z,100224.00
2022-10-10T10:09:21.744Z,98976.00
2022-10-10T10:10:21.739Z,99040.00
2022-10-10T10:11:21.722Z,98496.00
2022-10-10T10:12:21.709Z,98272.00
2022-10-10T10:13:21.742Z,98592.00
2022-10-10T10:14:22.699Z,99040.00
2022-10-10T10:15:21.685Z,97504.00
2022-10-10T10:16:21.689Z,96032.00
2022-10-10T10:17:21.679Z,95488.00
2022-10-10T10:18:21.702Z,96320.00
2022-10-10T10:19:21.665Z,96800.00
2022-10-10T10:20:21.653Z,94880.00
2022-10-10T10:21:21.647Z,97056.00
2022-10-10T10:22:26.184Z,100512.00
2022-10-10T10:23:23.680Z,98880.00
2022-10-10T10:24:21.654Z,97536.00
2022-10-10T10:25:21.621Z,100320.00
2022-10-10T10:26:21.616Z,100192.00
2022-10-10T10:27:21.602Z,100160.00
2022-10-10T10:28:21.703Z,100096.00
2022-10-10T10:29:21.594Z,98432.00
2022-10-10T10:30:21.581Z,100704.00
2022-10-10T10:31:21.579Z,101024.00
2022-10-10T10:32:21.570Z,98880.00
2022-10-10T10:33:21.559Z,98592.00
2022-10-10T10:34:21.584Z,96416.00
2022-10-10T10:35:21.548Z,97312.00
2022-10-10T10:36:21.544Z,99712.00
2022-10-10T10:37:21.533Z,99488.00
2022-10-10T10:38:21.531Z,101280.00
2022-10-10T10:39:21.624Z,101824.00
2022-10-10T10:40:21.518Z,101632.00
2022-10-10T10:41:21.518Z,101376.00
2022-10-10T10:42:21.506Z,101376.00
2022-10-10T10:43:21.501Z,100064.00
2022-10-10T10:44:21.509Z,98208.00
2022-10-10T10:45:21.478Z,95840.00
2022-10-10T10:46:21.465Z,95840.00
2022-10-10T10:47:22.482Z,90080.00
2022-10-10T10:48:21.455Z,93760.00
2022-10-10T10:49:24.670Z,95040.00
2022-10-10T10:50:21.445Z,103296.00
2022-10-10T10:51:21.445Z,102560.00
2022-10-10T10:52:21.429Z,97792.00
2022-10-10T10:53:21.433Z,97728.00
2022-10-10T10:54:21.444Z,99616.00
2022-10-10T10:55:21.405Z,90400.00
2022-10-10T10:56:21.426Z,102656.00
2022-10-10T10:57:32.912Z,100832.00
2022-10-10T10:59:41.738Z,102272.00
2022-10-10T11:01:17.333Z,104160.00
2022-10-10T11:01:44.781Z,103264.00
2022-10-10T11:02:43.439Z,105120.00
2022-10-10T11:05:17.740Z,104832.00
2022-10-10T11:05:21.393Z,106016.00
2022-10-10T11:05:31.064Z,102016.00
2022-10-10T11:06:23.497Z,97440.00
2022-10-10T11:07:21.559Z,96672.00
2022-10-10T11:08:21.313Z,99968.00
2022-10-10T11:09:50.799Z,102080.00
2022-10-10T11:10:23.297Z,101664.00
2022-10-10T11:11:21.292Z,100896.00
2022-10-10T11:12:21.287Z,100768.00
2022-10-10T11:13:21.277Z,102016.00
2022-10-10T11:14:21.311Z,100576.00
2022-10-10T11:15:21.266Z,99488.00
2022-10-10T11:16:43.690Z,100288.00
2022-10-10T11:17:23.254Z,99296.00
2022-10-10T11:18:21.248Z,96000.00
2022-10-10T11:19:21.272Z,97568.00
2022-10-10T11:20:21.229Z,96832.00
2022-10-10T11:21:21.224Z,94016.00
2022-10-10T11:22:21.220Z,91648.00
2022-10-10T11:23:21.211Z,97344.00
2022-10-10T11:24:21.205Z,98336.00
2022-10-10T11:25:21.221Z,99616.00
2022-10-10T11:26:21.184Z,101920.00
2022-10-10T11:27:21.184Z,99648.00
2022-10-10T11:28:21.236Z,100544.00
2022-10-10T11:29:21.196Z,100192.00
2022-10-10T11:30:21.160Z,101248.00
2022-10-10T11:31:21.156Z,100736.00
2022-10-10T11:32:21.190Z,99872.00
2022-10-10T11:33:21.148Z,97536.00
2022-10-10T11:34:21.169Z,96736.00
2022-10-10T11:35:21.133Z,91712.00
2022-10-10T11:36:21.119Z,87232.00
2022-10-10T11:37:21.109Z,87744.00
2022-10-10T11:38:21.104Z,83872.00
2022-10-10T11:39:21.128Z,87520.00
2022-10-10T11:40:21.100Z,88224.00
2022-10-10T11:41:21.082Z,85504.00
2022-10-10T11:42:21.083Z,79680.00
2022-10-10T11:43:21.076Z,83104.00
2022-10-10T11:44:21.093Z,79840.00
2022-10-10T11:45:21.056Z,74784.00
2022-10-10T11:46:21.059Z,64704.00
2022-10-10T11:47:21.045Z,48640.00
2022-10-10T11:48:21.044Z,42272.00
2022-10-10T11:49:21.061Z,41504.00
2022-10-10T11:50:21.029Z,41568.00
2022-10-10T11:51:21.020Z,42240.00
2022-10-10T11:52:33.763Z,43328.00
2022-10-10T11:53:22.999Z,43488.00
2022-10-10T11:54:21.026Z,41728.00
2022-10-10T11:55:20.988Z,42912.00
2022-10-10T11:56:20.981Z,46976.00
2022-10-10T11:57:20.974Z,50400.00
2022-10-10T11:58:20.965Z,50912.00
2022-10-10T11:59:20.996Z,49216.00
2022-10-10T12:00:20.956Z,46816.00
2022-10-10T12:01:20.956Z,47328.00
2022-10-10T12:02:23.265Z,47296.00
2022-10-10T12:03:20.993Z,46240.00
2022-10-10T12:04:21.017Z,43840.00
2022-10-10T12:05:20.930Z,42400.00
2022-10-10T12:06:20.924Z,44832.00
2022-10-10T12:07:20.909Z,45216.00
2022-10-10T12:08:20.903Z,43040.00
2022-10-10T12:09:20.917Z,42880.00
2022-10-10T12:10:20.893Z,41984.00
2022-10-10T12:11:20.881Z,41440.00
2022-10-10T12:12:20.869Z,42176.00
2022-10-10T12:13:20.865Z,42560.00
2022-10-10T12:14:20.888Z,41568.00
2022-10-10T12:15:20.860Z,39776.00
2022-10-10T12:16:20.870Z,40352.00
2022-10-10T12:17:20.836Z,41696.00
2022-10-10T12:18:20.832Z,40960.00
2022-10-10T12:19:20.859Z,39712.00
2022-10-10T12:20:20.823Z,39616.00
2022-10-10T12:21:20.813Z,39808.00
2022-10-10T12:22:20.821Z,39968.00